createdAt,value
2018-03-26T00:02:05.332Z,81.20
2018-03-26T00:04:33.595Z,81.50
2018-03-26T00:07:01.868Z,81.70
2018-03-26T00:09:30.122Z,81.60
2018-03-26T00:11:59.157Z,81.80
2018-03-26T00:14:27.415Z,81.60
2018-03-26T00:16:56.464Z,82.20
2018-03-26T00:19:24.716Z,82.20
2018-03-26T00:21:53.133Z,82.20
2018-03-26T00:24:22.094Z,81.70
2018-03-26T00:26:50.362Z,81.70
2018-03-26T00:29:18.622Z,81.40
2018-03-26T00:31:47.666Z,81.60
2018-03-26T00:34:15.926Z,81.60
2018-03-26T00:36:44.209Z,81.40
2018-03-26T00:39:13.234Z,81.50
2018-03-26T00:41:41.521Z,81.50
2018-03-26T00:44:09.785Z,81.60
2018-03-26T00:46:38.049Z,81.60
2018-03-26T00:49:06.313Z,81.90
2018-03-26T00:51:34.586Z,82.00
2018-03-26T00:54:02.842Z,81.90
2018-03-26T00:56:31.109Z,82.10
2018-03-26T00:58:59.363Z,82.10
2018-03-26T01:01:27.643Z,82.20
2018-03-26T01:03:55.913Z,82.40
2018-03-26T01:06:24.955Z,82.50
2018-03-26T01:08:53.215Z,82.40
2018-03-26T01:11:21.482Z,82.60
2018-03-26T01:13:50.500Z,82.70
2018-03-26T01:16:18.770Z,82.70
2018-03-26T01:18:47.034Z,82.80
2018-03-26T01:21:16.068Z,82.80
2018-03-26T01:23:44.322Z,82.80
2018-03-26T01:26:12.597Z,82.90
2018-03-26T01:28:41.641Z,82.80
2018-03-26T01:31:09.927Z,82.80
2018-03-26T01:33:38.181Z,82.60
2018-03-26T01:36:06.445Z,82.50
2018-03-26T01:38:34.701Z,82.30
2018-03-26T01:41:02.966Z,82.20
2018-03-26T01:43:31.228Z,83.20
2018-03-26T01:45:59.508Z,82.50
2018-03-26T01:48:27.796Z,82.70
2018-03-26T01:50:56.047Z,82.90
2018-03-26T01:53:24.327Z,83.10
2018-03-26T01:55:52.589Z,83.50
2018-03-26T01:58:21.617Z,83.60
2018-03-26T02:00:49.877Z,83.60
2018-03-26T02:03:18.148Z,83.60
2018-03-26T02:05:47.157Z,84.60
2018-03-26T02:08:16.187Z,84.40
2018-03-26T02:10:44.437Z,84.40
2018-03-26T02:13:13.477Z,84.60
2018-03-26T02:15:41.750Z,84.60
2018-03-26T02:18:10.046Z,83.50
2018-03-26T02:20:38.319Z,83.40
2018-03-26T02:23:06.577Z,83.40
2018-03-26T02:25:34.847Z,84.20
2018-03-26T02:28:03.858Z,84.90
2018-03-26T02:30:32.108Z,84.90
2018-03-26T02:33:01.135Z,85.00
2018-03-26T02:35:29.400Z,85.00
2018-03-26T02:37:58.537Z,85.00
2018-03-26T02:40:26.787Z,85.00
2018-03-26T02:42:55.067Z,85.20
2018-03-26T02:45:24.090Z,85.30
2018-03-26T02:47:52.354Z,85.20
2018-03-26T02:50:20.606Z,85.40
2018-03-26T02:52:48.862Z,85.60
2018-03-26T02:55:17.132Z,85.50
2018-03-26T02:57:45.417Z,85.30
2018-03-26T03:00:13.658Z,85.30
2018-03-26T03:02:42.685Z,85.80
2018-03-26T03:05:10.938Z,85.80
2018-03-26T03:07:39.243Z,85.80
2018-03-26T03:10:07.541Z,85.80
2018-03-26T03:12:36.592Z,85.50
2018-03-26T03:15:05.609Z,85.20
2018-03-26T03:17:33.881Z,85.30
2018-03-26T03:20:11.371Z,85.20
2018-03-26T03:22:40.425Z,85.20
2018-03-26T03:25:08.680Z,85.10
2018-03-26T03:27:36.947Z,85.20
2018-03-26T03:30:05.721Z,85.50
2018-03-26T03:32:34.054Z,85.30
2018-03-26T03:35:02.325Z,85.20
2018-03-26T03:37:30.609Z,85.60
2018-03-26T03:39:58.848Z,85.50
2018-03-26T03:42:27.882Z,85.10
2018-03-26T03:44:56.132Z,85.10
2018-03-26T03:47:25.160Z,85.30
2018-03-26T03:49:53.410Z,85.30
2018-03-26T03:52:22.440Z,85.40
2018-03-26T03:54:50.916Z,85.40
2018-03-26T03:57:19.174Z,85.10
2018-03-26T03:59:49.200Z,85.00
2018-03-26T04:02:18.242Z,85.00
2018-03-26T04:04:46.487Z,85.00
2018-03-26T04:07:14.752Z,84.50
2018-03-26T04:09:43.776Z,84.20
2018-03-26T04:12:12.050Z,84.20
2018-03-26T04:14:40.377Z,83.80
2018-03-26T04:17:08.651Z,83.80
2018-03-26T04:19:36.889Z,84.10
2018-03-26T04:22:05.150Z,84.30
2018-03-26T04:24:33.398Z,84.50
2018-03-26T04:27:01.671Z,84.40
2018-03-26T04:29:29.941Z,84.50
2018-03-26T04:31:59.203Z,84.70
2018-03-26T04:34:27.438Z,84.90
2018-03-26T04:36:55.712Z,85.30
2018-03-26T04:39:23.962Z,85.10
2018-03-26T04:41:52.986Z,85.40
2018-03-26T04:44:21.249Z,85.30
2018-03-26T04:46:49.495Z,85.20
2018-03-26T04:49:17.876Z,85.20
2018-03-26T04:51:46.116Z,85.40
2018-03-26T04:54:14.387Z,85.30
2018-03-26T04:56:42.685Z,85.20
2018-03-26T04:59:10.943Z,85.20
2018-03-26T05:01:39.212Z,85.30
2018-03-26T05:04:08.233Z,85.40
2018-03-26T05:06:36.474Z,85.40
2018-03-26T05:09:05.530Z,85.40
2018-03-26T05:11:33.761Z,85.40
2018-03-26T05:14:02.807Z,85.50
2018-03-26T05:16:31.057Z,85.60
2018-03-26T05:18:59.324Z,85.40
2018-03-26T05:21:28.264Z,85.20
2018-03-26T05:23:56.535Z,85.20
2018-03-26T05:26:24.789Z,85.10
2018-03-26T05:28:53.368Z,85.30
2018-03-26T05:31:22.433Z,84.50
2018-03-26T05:33:51.030Z,84.50
2018-03-26T05:36:19.257Z,84.00
2018-03-26T05:38:47.519Z,83.40
2018-03-26T05:41:16.531Z,82.60
2018-03-26T05:43:45.948Z,82.40
2018-03-26T05:46:14.226Z,82.40
2018-03-26T05:48:42.500Z,82.00
2018-03-26T05:51:10.758Z,82.60
2018-03-26T05:53:40.320Z,83.00
2018-03-26T05:56:08.603Z,83.00
2018-03-26T05:58:36.873Z,83.00
2018-03-26T06:01:05.148Z,83.00
2018-03-26T06:03:33.430Z,83.00
2018-03-26T06:06:01.673Z,83.00
2018-03-26T06:08:30.707Z,83.50
2018-03-26T06:10:58.964Z,83.50
2018-03-26T06:13:27.987Z,83.30
2018-03-26T06:15:56.274Z,83.30
2018-03-26T06:18:24.538Z,83.30
2018-03-26T06:20:52.810Z,83.30
2018-03-26T06:23:22.518Z,83.00
2018-03-26T06:25:51.540Z,82.70
2018-03-26T06:28:19.811Z,82.70
2018-03-26T06:30:48.074Z,83.00
2018-03-26T06:33:17.117Z,82.70
2018-03-26T06:35:45.358Z,82.70
2018-03-26T06:38:25.089Z,83.90
2018-03-26T06:40:53.331Z,83.90
2018-03-26T06:43:21.592Z,83.10
2018-03-26T06:45:49.844Z,82.80
2018-03-26T06:48:18.866Z,83.00
2018-03-26T06:50:47.131Z,82.80
2018-03-26T06:53:16.163Z,82.20
2018-03-26T06:55:44.483Z,82.20
2018-03-26T06:58:12.738Z,82.20
2018-03-26T07:00:40.994Z,82.30
2018-03-26T07:03:09.299Z,82.40
2018-03-26T07:05:37.550Z,82.10
2018-03-26T07:08:05.802Z,82.00
2018-03-26T07:10:34.813Z,81.30
2018-03-26T07:13:03.086Z,81.30
2018-03-26T07:15:32.125Z,80.70
2018-03-26T07:18:00.439Z,80.70
2018-03-26T07:20:28.679Z,80.20
2018-03-26T07:22:56.936Z,79.70
2018-03-26T07:25:25.198Z,79.60
2018-03-26T07:27:54.242Z,79.50
2018-03-26T07:30:22.503Z,79.50
2018-03-26T07:32:50.764Z,79.50
2018-03-26T07:35:19.783Z,83.80
2018-03-26T07:37:48.138Z,83.80
2018-03-26T07:40:17.197Z,85.30
2018-03-26T07:42:45.507Z,85.30
2018-03-26T07:45:13.790Z,85.60
2018-03-26T07:47:42.088Z,85.40
2018-03-26T07:50:11.456Z,85.20
2018-03-26T07:52:39.783Z,85.10
2018-03-26T07:55:08.832Z,85.00
2018-03-26T07:57:37.090Z,85.00
2018-03-26T08:00:05.347Z,85.00
2018-03-26T08:02:34.357Z,84.70
2018-03-26T08:05:02.930Z,84.80
2018-03-26T08:07:31.488Z,84.40
2018-03-26T08:10:00.076Z,84.80
2018-03-26T08:12:28.561Z,84.70
2018-03-26T08:14:57.148Z,84.30
2018-03-26T08:17:25.669Z,84.10
2018-03-26T08:19:54.325Z,84.20
2018-03-26T08:22:23.633Z,84.30
2018-03-26T08:24:52.223Z,84.30
2018-03-26T08:27:21.628Z,82.80
2018-03-26T08:29:50.228Z,82.80
2018-03-26T08:32:19.520Z,82.00
2018-03-26T08:34:48.723Z,82.50
2018-03-26T08:37:18.032Z,81.70
2018-03-26T08:39:46.389Z,82.50
2018-03-26T08:42:14.727Z,82.30
2018-03-26T08:44:42.945Z,80.10
2018-03-26T08:47:11.202Z,77.80
2018-03-26T08:49:39.514Z,77.70
2018-03-26T08:52:07.777Z,77.70
2018-03-26T08:54:36.085Z,77.40
2018-03-26T08:57:04.342Z,77.20
2018-03-26T08:59:32.666Z,76.40
2018-03-26T09:02:00.979Z,76.30
2018-03-26T09:04:29.257Z,76.30
2018-03-26T09:06:57.540Z,76.10
2018-03-26T09:09:25.810Z,75.80
2018-03-26T09:11:54.145Z,75.70
2018-03-26T09:14:22.421Z,75.80
2018-03-26T09:16:50.698Z,76.00
2018-03-26T09:19:18.955Z,76.00
2018-03-26T09:21:47.289Z,76.20
2018-03-26T09:24:15.554Z,77.10
2018-03-26T09:26:43.824Z,77.80
2018-03-26T09:29:12.093Z,77.60
2018-03-26T09:31:40.343Z,77.00
2018-03-26T09:34:08.621Z,76.90
2018-03-26T09:36:37.851Z,76.90
2018-03-26T09:39:06.154Z,76.90
2018-03-26T09:41:34.399Z,77.00
2018-03-26T09:44:02.684Z,77.10
2018-03-26T09:46:30.944Z,77.40
2018-03-26T09:48:59.978Z,76.90
2018-03-26T09:51:28.229Z,76.90
2018-03-26T09:53:57.268Z,77.40
2018-03-26T09:56:25.527Z,77.40
2018-03-26T09:58:53.815Z,77.60
2018-03-26T10:01:22.078Z,78.00
2018-03-26T10:03:50.357Z,79.40
2018-03-26T10:06:18.624Z,78.90
2018-03-26T10:08:47.665Z,80.00
2018-03-26T10:11:15.928Z,80.00
2018-03-26T10:13:44.225Z,80.30
2018-03-26T10:16:12.518Z,80.40
2018-03-26T10:18:40.786Z,80.10
2018-03-26T10:21:09.076Z,79.90
2018-03-26T10:23:37.372Z,79.70
2018-03-26T10:26:05.631Z,80.00
2018-03-26T10:28:33.898Z,79.80
2018-03-26T10:31:02.165Z,80.10
2018-03-26T10:33:30.454Z,80.50
2018-03-26T10:35:58.706Z,80.60
2018-03-26T10:38:27.759Z,81.40
2018-03-26T10:40:56.031Z,81.30
2018-03-26T10:43:24.307Z,81.80
2018-03-26T10:45:52.558Z,83.20
2018-03-26T10:48:21.575Z,82.30
2018-03-26T10:50:49.838Z,82.20
2018-03-26T10:53:19.672Z,81.60
2018-03-26T10:55:47.944Z,81.60
2018-03-26T10:58:16.962Z,82.00
2018-03-26T11:00:45.583Z,81.90
2018-03-26T11:03:13.929Z,81.30
2018-03-26T11:05:42.572Z,82.40
2018-03-26T11:08:11.265Z,82.60
2018-03-26T11:10:40.673Z,82.20
2018-03-26T11:13:09.165Z,82.20
2018-03-26T11:15:37.565Z,83.20
2018-03-26T11:18:05.964Z,83.50
2018-03-26T11:20:34.647Z,84.40
2018-03-26T11:23:03.770Z,85.90
2018-03-26T11:25:32.034Z,85.90
2018-03-26T11:28:01.087Z,87.10
2018-03-26T11:30:29.348Z,87.00
2018-03-26T11:32:57.606Z,86.60
2018-03-26T11:35:25.878Z,87.80
2018-03-26T11:37:54.142Z,89.60
2018-03-26T11:40:23.177Z,90.60
2018-03-26T11:42:51.446Z,90.60
2018-03-26T11:45:19.725Z,91.10
2018-03-26T11:47:47.969Z,90.80
2018-03-26T11:50:17.009Z,89.90
2018-03-26T11:52:45.261Z,89.70
2018-03-26T11:55:14.363Z,90.90
2018-03-26T11:57:42.581Z,90.90
2018-03-26T12:00:10.854Z,90.30
2018-03-26T12:02:39.133Z,89.90
2018-03-26T12:05:07.761Z,89.20
2018-03-26T12:07:36.348Z,88.70
2018-03-26T12:10:04.835Z,88.40
2018-03-26T12:12:33.365Z,88.20
2018-03-26T12:15:02.059Z,88.90
2018-03-26T12:17:30.611Z,86.20
2018-03-26T12:20:12.246Z,88.00
2018-03-26T12:22:40.514Z,88.00
2018-03-26T12:25:11.483Z,80.20
2018-03-26T12:27:51.869Z,80.20
2018-03-26T12:30:21.038Z,80.90
2018-03-26T12:32:49.290Z,80.20
2018-03-26T12:35:30.279Z,78.10
2018-03-26T12:37:59.680Z,75.60
2018-03-26T12:40:40.564Z,74.80
2018-03-26T12:43:09.800Z,73.20
2018-03-26T12:45:49.812Z,73.30
2018-03-26T12:48:18.828Z,69.80
2018-03-26T12:50:59.096Z,69.80
2018-03-26T12:53:27.349Z,69.80
2018-03-26T12:55:56.378Z,70.40
2018-03-26T12:58:36.898Z,70.30
2018-03-26T13:01:17.239Z,70.50
2018-03-26T13:03:45.658Z,69.00
2018-03-26T13:06:15.048Z,69.00
2018-03-26T13:08:43.643Z,69.00
2018-03-26T13:11:13.049Z,68.80
2018-03-26T13:13:43.180Z,68.30
2018-03-26T13:16:12.593Z,68.80
2018-03-26T13:18:41.113Z,68.80
2018-03-26T13:21:09.611Z,69.40
2018-03-26T13:23:38.257Z,70.50
2018-03-26T13:26:06.841Z,72.90
2018-03-26T13:28:35.533Z,73.90
2018-03-26T13:31:04.119Z,76.40
2018-03-26T13:33:32.811Z,76.80
2018-03-26T13:36:01.247Z,76.90
2018-03-26T13:38:29.507Z,76.40
2018-03-26T13:40:58.546Z,74.60
2018-03-26T13:43:26.809Z,74.60
2018-03-26T13:45:55.082Z,75.00
2018-03-26T13:48:23.394Z,75.30
2018-03-26T13:50:51.678Z,74.70
2018-03-26T13:53:19.922Z,74.30
2018-03-26T13:55:48.189Z,75.20
2018-03-26T13:58:17.251Z,75.90
2018-03-26T14:00:45.494Z,75.80
2018-03-26T14:03:13.770Z,76.20
2018-03-26T14:05:42.064Z,77.10
2018-03-26T14:08:22.391Z,77.30
2018-03-26T14:11:02.686Z,77.60
2018-03-26T14:16:28.786Z,77.80
2018-03-26T14:18:57.018Z,78.10
2018-03-26T14:21:25.307Z,78.40
2018-03-26T14:23:53.558Z,79.60
2018-03-26T14:26:21.826Z,81.20
2018-03-26T14:28:50.173Z,81.60
2018-03-26T14:31:18.435Z,82.30
2018-03-26T14:33:46.690Z,82.70
2018-03-26T14:36:15.714Z,86.60
2018-03-26T14:38:43.978Z,86.60
2018-03-26T14:41:12.264Z,90.00
2018-03-26T14:43:41.303Z,91.20
2018-03-26T14:46:09.593Z,91.20
2018-03-26T14:48:37.847Z,90.50
2018-03-26T14:51:06.108Z,90.30
2018-03-26T14:53:34.371Z,89.50
2018-03-26T14:56:05.046Z,91.30
2018-03-26T14:58:33.303Z,91.30
2018-03-26T15:01:02.337Z,89.50
2018-03-26T15:03:30.583Z,89.40
2018-03-26T15:05:59.700Z,86.70
2018-03-26T15:08:27.974Z,86.80
2018-03-26T15:10:56.243Z,87.60
2018-03-26T15:13:25.260Z,90.70
2018-03-26T15:15:53.583Z,90.70
2018-03-26T15:18:21.836Z,90.90
2018-03-26T15:20:50.085Z,90.40
2018-03-26T15:23:19.131Z,89.00
2018-03-26T15:25:47.407Z,88.90
2018-03-26T15:28:15.729Z,88.70
2018-03-26T15:30:44.091Z,88.50
2018-03-26T15:33:12.351Z,89.20
2018-03-26T15:35:40.627Z,90.00
2018-03-26T15:38:08.930Z,90.00
2018-03-26T15:40:37.189Z,89.90
2018-03-26T15:43:05.493Z,90.00
2018-03-26T15:45:33.734Z,89.60
2018-03-26T15:48:02.004Z,90.70
2018-03-26T15:50:31.177Z,92.70
2018-03-26T15:53:00.225Z,93.10
2018-03-26T15:55:28.489Z,93.10
2018-03-26T15:57:57.509Z,93.40
2018-03-26T16:00:25.774Z,93.30
2018-03-26T16:02:59.758Z,93.30
2018-03-26T16:05:28.067Z,93.40
2018-03-26T16:07:57.146Z,93.90
2018-03-26T16:10:25.517Z,93.90
2018-03-26T16:12:53.785Z,93.30
2018-03-26T16:15:22.105Z,93.60
2018-03-26T16:17:51.127Z,93.30
2018-03-26T16:20:19.379Z,93.30
2018-03-26T16:22:48.423Z,93.60
2018-03-26T16:25:16.684Z,93.60
2018-03-26T16:27:44.946Z,93.50
2018-03-26T16:30:13.998Z,92.80
2018-03-26T16:32:42.250Z,92.80
2018-03-26T16:35:10.520Z,93.50
2018-03-26T16:37:38.815Z,93.80
2018-03-26T16:40:07.186Z,94.60
2018-03-26T16:42:42.463Z,94.80
2018-03-26T16:45:10.728Z,95.10
2018-03-26T16:47:39.021Z,95.70
2018-03-26T16:50:07.295Z,95.90
2018-03-26T16:52:35.564Z,95.80
2018-03-26T16:55:03.814Z,96.00
2018-03-26T16:57:32.862Z,96.20
2018-03-26T17:00:01.132Z,96.20
2018-03-26T17:02:29.405Z,96.30
2018-03-26T17:04:57.662Z,96.10
2018-03-26T17:07:26.701Z,96.10
2018-03-26T17:09:55.778Z,96.00
2018-03-26T17:12:24.042Z,96.10
2018-03-26T17:14:52.358Z,96.10
2018-03-26T17:17:20.628Z,96.00
2018-03-26T17:19:48.871Z,96.00
2018-03-26T17:22:17.907Z,95.80
2018-03-26T17:24:46.514Z,96.00
2018-03-26T17:27:14.787Z,96.00
2018-03-26T17:29:43.078Z,95.90
2018-03-26T17:32:11.338Z,95.90
2018-03-26T17:34:39.591Z,95.70
2018-03-26T17:37:08.618Z,95.80
2018-03-26T17:39:36.875Z,95.80
2018-03-26T17:42:06.008Z,96.10
2018-03-26T17:44:34.267Z,96.10
2018-03-26T17:47:03.320Z,96.30
2018-03-26T17:49:31.822Z,96.30
2018-03-26T17:52:00.311Z,96.50
2018-03-26T17:54:28.569Z,96.90
2018-03-26T17:56:56.840Z,96.30
2018-03-26T17:59:25.112Z,96.30
2018-03-26T18:01:53.563Z,96.30
2018-03-26T18:04:22.622Z,96.40
2018-03-26T18:06:50.917Z,96.40
2018-03-26T18:11:39.968Z,97.00
2018-03-26T18:14:08.241Z,97.20
2018-03-26T18:16:36.503Z,97.50
2018-03-26T18:19:05.543Z,97.20
2018-03-26T18:21:33.808Z,97.30
2018-03-26T18:24:02.086Z,97.30
2018-03-26T18:26:31.173Z,97.60
2018-03-26T18:28:59.454Z,98.00
2018-03-26T18:31:27.715Z,98.30
2018-03-26T18:33:56.763Z,98.40
2018-03-26T18:36:25.004Z,98.30
2018-03-26T18:38:53.274Z,98.30
2018-03-26T18:41:22.297Z,98.30
2018-03-26T18:43:50.582Z,98.30
2018-03-26T18:46:18.850Z,98.20
2018-03-26T18:48:47.118Z,98.00
2018-03-26T18:51:16.177Z,98.00
2018-03-26T18:53:44.446Z,98.00
2018-03-26T18:56:12.756Z,98.20
2018-03-26T18:58:41.036Z,98.30
2018-03-26T19:01:10.807Z,98.20
2018-03-26T19:03:39.069Z,98.20
2018-03-26T19:06:07.374Z,98.10
2018-03-26T19:08:35.649Z,98.00
2018-03-26T19:11:03.910Z,97.90
2018-03-26T19:13:32.978Z,97.90
2018-03-26T19:16:01.220Z,97.90
2018-03-26T19:18:29.509Z,97.90
2018-03-26T19:20:57.745Z,97.80
2018-03-26T19:23:26.791Z,97.90
2018-03-26T19:25:55.047Z,97.90
2018-03-26T19:28:23.338Z,98.00
2018-03-26T19:31:00.201Z,98.00
2018-03-26T19:33:29.222Z,98.10
2018-03-26T19:35:57.485Z,98.10
2018-03-26T19:38:25.761Z,97.90
2018-03-26T19:40:54.774Z,98.10
2018-03-26T19:43:23.080Z,98.10
2018-03-26T19:45:51.338Z,98.30
2018-03-26T19:48:19.773Z,98.70
2018-03-26T19:50:48.035Z,98.40
2018-03-26T19:53:16.301Z,98.40
2018-03-26T19:55:44.574Z,98.30
2018-03-26T19:58:12.875Z,98.30
2018-03-26T20:00:41.163Z,98.00
2018-03-26T20:03:09.447Z,97.20
2018-03-26T20:05:37.705Z,95.30
2018-03-26T20:08:05.970Z,94.80
2018-03-26T20:10:34.251Z,94.30
2018-03-26T20:13:03.255Z,94.20
2018-03-26T20:15:31.517Z,93.80
2018-03-26T20:17:59.785Z,93.90
2018-03-26T20:20:28.023Z,93.30
2018-03-26T20:22:56.892Z,93.30
2018-03-26T20:25:25.147Z,92.90
2018-03-26T20:27:54.185Z,92.60
2018-03-26T20:30:22.444Z,92.60
2018-03-26T20:32:50.711Z,92.30
2018-03-26T20:35:19.738Z,92.30
2018-03-26T20:37:47.989Z,92.30
2018-03-26T20:40:17.125Z,92.10
2018-03-26T20:42:45.384Z,92.10
2018-03-26T20:45:13.641Z,92.30
2018-03-26T20:47:42.696Z,92.30
2018-03-26T20:50:10.984Z,92.30
2018-03-26T20:52:39.234Z,92.00
2018-03-26T20:55:07.573Z,91.90
2018-03-26T20:57:35.783Z,91.70
2018-03-26T21:00:04.045Z,91.60
2018-03-26T21:02:33.089Z,91.10
2018-03-26T21:05:01.353Z,91.10
2018-03-26T21:07:29.606Z,91.00
2018-03-26T21:09:58.640Z,91.10
2018-03-26T21:12:26.889Z,91.10
2018-03-26T21:14:55.919Z,90.60
2018-03-26T21:17:24.174Z,90.50
2018-03-26T21:19:53.299Z,89.20
2018-03-26T21:22:21.546Z,89.20
2018-03-26T21:24:50.590Z,88.40
2018-03-26T21:27:18.826Z,88.40
2018-03-26T21:29:47.868Z,88.30
2018-03-26T21:32:16.120Z,88.30
2018-03-26T21:34:44.418Z,87.90
2018-03-26T21:37:12.670Z,90.10
2018-03-26T21:39:44.193Z,91.80
2018-03-26T21:42:12.498Z,92.10
2018-03-26T21:44:40.746Z,92.50
2018-03-26T21:47:09.016Z,92.70
2018-03-26T21:49:37.282Z,92.80
2018-03-26T21:52:06.306Z,92.60
2018-03-26T21:54:34.572Z,92.60
2018-03-26T21:57:02.890Z,92.60
2018-03-26T21:59:31.172Z,92.60
2018-03-26T22:01:59.442Z,92.30
2018-03-26T22:04:27.682Z,91.90
2018-03-26T22:06:56.005Z,91.80
2018-03-26T22:09:24.253Z,91.90
2018-03-26T22:11:52.523Z,92.00
2018-03-26T22:14:20.770Z,92.10
2018-03-26T22:16:49.031Z,92.20
2018-03-26T22:19:17.290Z,92.30
2018-03-26T22:21:45.562Z,92.50
2018-03-26T22:24:13.858Z,92.70
2018-03-26T22:26:42.162Z,92.50
2018-03-26T22:29:10.526Z,92.50
2018-03-26T22:31:38.778Z,92.60
2018-03-26T22:34:07.036Z,92.70
2018-03-26T22:36:36.100Z,92.90
2018-03-26T22:39:04.359Z,93.20
2018-03-26T22:41:32.611Z,92.90
2018-03-26T22:44:00.872Z,93.00
2018-03-26T22:46:29.202Z,93.00
2018-03-26T22:48:57.463Z,93.40
2018-03-26T22:51:25.701Z,93.20
2018-03-26T22:53:54.046Z,93.30
2018-03-26T22:56:22.297Z,93.80
2018-03-26T22:58:50.590Z,93.80
2018-03-26T23:01:18.843Z,93.90
2018-03-26T23:03:47.867Z,94.30
2018-03-26T23:06:16.165Z,94.30
2018-03-26T23:08:44.485Z,94.00
2018-03-26T23:11:12.727Z,93.90
2018-03-26T23:13:40.986Z,93.90
2018-03-26T23:16:09.273Z,93.70
2018-03-26T23:18:37.559Z,93.50
2018-03-26T23:21:05.807Z,93.30
2018-03-26T23:23:34.835Z,93.10
2018-03-26T23:26:03.129Z,93.10
2018-03-26T23:28:31.381Z,93.00
2018-03-26T23:30:59.686Z,93.00
2018-03-26T23:33:27.943Z,93.10
2018-03-26T23:35:56.258Z,93.40
2018-03-26T23:38:24.533Z,93.70
2018-03-26T23:40:52.800Z,93.30
2018-03-26T23:43:21.043Z,93.40
2018-03-26T23:45:50.084Z,93.50
2018-03-26T23:48:19.138Z,93.50
2018-03-26T23:50:48.189Z,93.80
2018-03-26T23:53:16.439Z,93.70
2018-03-26T23:55:45.573Z,94.30
2018-03-26T23:58:13.860Z,94.30
